createdAt,value
2019-02-07T00:00:13.599Z,-3.65
2019-02-07T00:02:41.902Z,-3.68
2019-02-07T00:05:10.195Z,-3.74
2019-02-07T00:07:38.584Z,-3.76
2019-02-07T00:10:10.361Z,-3.79
2019-02-07T00:12:38.638Z,-3.73
2019-02-07T00:15:10.951Z,-3.66
2019-02-07T00:17:39.251Z,-3.59
2019-02-07T00:20:11.029Z,-3.59
2019-02-07T00:22:39.475Z,-3.54
2019-02-07T00:25:09.669Z,-3.44
2019-02-07T00:27:38.018Z,-3.43
2019-02-07T00:30:15.840Z,-3.43
2019-02-07T00:32:44.114Z,-5.24
2019-02-07T00:35:12.395Z,-3.31
2019-02-07T00:37:40.666Z,-3.20
2019-02-07T00:40:17.999Z,-3.17
2019-02-07T00:42:46.752Z,-3.10
2019-02-07T00:45:18.287Z,-3.07
2019-02-07T00:47:46.598Z,-3.04
2019-02-07T00:50:17.069Z,-3.01
2019-02-07T00:52:45.321Z,-3.01
2019-02-07T00:55:15.137Z,-3.04
2019-02-07T00:57:43.934Z,-3.04
2019-02-07T01:00:21.300Z,-3.03
2019-02-07T01:02:49.596Z,-3.06
2019-02-07T01:05:17.867Z,-3.21
2019-02-07T01:07:46.147Z,-3.18
2019-02-07T01:10:20.799Z,-3.12
2019-02-07T01:12:49.098Z,-3.14
2019-02-07T01:15:17.436Z,-3.08
2019-02-07T01:17:45.703Z,-3.04
2019-02-07T01:20:16.017Z,-2.97
2019-02-07T01:22:44.321Z,-2.98
2019-02-07T01:25:15.665Z,-3.91
2019-02-07T01:27:43.969Z,-3.05
2019-02-07T01:30:15.047Z,-3.10
2019-02-07T01:32:43.314Z,-3.03
2019-02-07T01:35:11.587Z,-3.01
2019-02-07T01:37:39.883Z,-3.03
2019-02-07T01:40:13.822Z,-3.02
2019-02-07T01:42:42.092Z,-3.01
2019-02-07T01:45:13.531Z,-3.02
2019-02-07T01:47:41.875Z,-2.99
2019-02-07T01:50:12.691Z,-3.01
2019-02-07T01:52:40.960Z,-3.05
2019-02-07T01:55:09.599Z,-3.00
2019-02-07T01:57:37.876Z,-2.99
2019-02-07T02:00:11.352Z,-3.00
2019-02-07T02:02:39.713Z,-2.98
2019-02-07T02:05:10.029Z,-2.96
2019-02-07T02:07:38.334Z,-3.00
2019-02-07T02:10:16.243Z,-3.02
2019-02-07T02:12:44.579Z,-3.06
2019-02-07T02:15:23.719Z,-3.05
2019-02-07T02:17:43.594Z,-3.04
2019-02-07T02:20:14.410Z,-3.09
2019-02-07T02:22:42.963Z,-3.08
2019-02-07T02:25:11.994Z,-3.09
2019-02-07T02:27:40.294Z,-3.10
2019-02-07T02:30:11.817Z,-3.06
2019-02-07T02:32:40.080Z,-3.04
2019-02-07T02:35:11.397Z,-3.04
2019-02-07T02:37:40.022Z,-3.07
2019-02-07T02:40:09.970Z,-3.06
2019-02-07T02:42:38.253Z,-3.05
2019-02-07T02:45:09.774Z,-3.05
2019-02-07T02:47:38.051Z,-3.07
2019-02-07T02:50:09.620Z,-3.43
2019-02-07T02:52:40.300Z,-3.10
2019-02-07T02:55:11.356Z,-3.12
2019-02-07T02:57:39.612Z,-3.13
2019-02-07T03:00:12.784Z,-3.09
2019-02-07T03:02:58.784Z,-3.09
2019-02-07T03:05:43.844Z,-3.14
2019-02-07T03:08:30.400Z,-3.15
2019-02-07T03:11:00.572Z,-3.15
2019-02-07T03:13:30.478Z,-3.16
2019-02-07T03:16:16.776Z,-3.20
2019-02-07T03:19:02.574Z,-3.28
2019-02-07T03:21:32.497Z,-3.35
2019-02-07T03:24:08.475Z,-3.37
2019-02-07T03:26:41.267Z,-3.37
2019-02-07T03:29:27.323Z,-3.39
2019-02-07T03:31:59.803Z,-3.40
2019-02-07T03:34:29.713Z,-3.47
2019-02-07T03:37:05.383Z,-3.46
2019-02-07T03:39:50.298Z,-3.50
2019-02-07T03:42:36.196Z,-3.46
2019-02-07T03:45:10.819Z,-3.47
2019-02-07T03:47:41.128Z,-3.48
2019-02-07T03:50:16.917Z,-3.41
2019-02-07T03:52:55.826Z,-3.47
2019-02-07T03:55:28.644Z,-3.45
2019-02-07T03:58:01.686Z,-3.43
2019-02-07T04:00:34.520Z,-3.45
2019-02-07T04:03:16.752Z,-3.46
2019-02-07T04:05:46.655Z,-3.50
2019-02-07T04:08:32.935Z,-3.48
2019-02-07T04:11:02.842Z,-3.45
2019-02-07T04:13:50.485Z,-3.45
2019-02-07T04:16:20.772Z,-3.46
2019-02-07T04:19:08.783Z,-3.47
2019-02-07T04:21:41.750Z,-3.48
2019-02-07T04:24:11.704Z,-3.54
2019-02-07T04:26:58.216Z,-3.53
2019-02-07T04:29:46.703Z,-3.58
2019-02-07T04:32:19.374Z,-3.62
2019-02-07T04:34:55.096Z,-3.60
2019-02-07T04:37:27.284Z,-3.58
2019-02-07T04:40:13.349Z,-3.59
2019-02-07T04:42:43.646Z,-3.62
2019-02-07T04:45:25.347Z,-3.63
2019-02-07T04:47:55.269Z,-3.63
2019-02-07T04:50:25.180Z,-3.67
2019-02-07T04:52:55.142Z,-3.68
2019-02-07T04:55:34.235Z,-3.70
2019-02-07T04:58:09.876Z,-3.68
2019-02-07T05:00:48.430Z,-3.64
2019-02-07T05:03:18.405Z,-3.62
2019-02-07T05:05:48.366Z,-3.68
2019-02-07T05:08:30.247Z,-3.64
2019-02-07T05:11:02.873Z,-3.64
2019-02-07T05:13:50.620Z,-3.67
2019-02-07T05:16:39.766Z,-3.71
2019-02-07T05:19:04.354Z,-3.73
2019-02-07T05:21:49.650Z,-3.73
2019-02-07T05:24:22.386Z,-3.74
2019-02-07T05:27:04.280Z,-3.73
2019-02-07T05:29:40.204Z,-3.68
2019-02-07T05:32:12.923Z,-3.71
2019-02-07T05:34:45.678Z,-3.86
2019-02-07T05:37:31.626Z,-3.85
2019-02-07T05:40:01.547Z,-3.83
2019-02-07T05:42:37.202Z,-3.82
2019-02-07T05:45:26.152Z,-3.76
2019-02-07T05:48:12.354Z,-3.77
2019-02-07T05:50:42.375Z,-3.79
2019-02-07T05:53:15.021Z,-3.72
2019-02-07T05:55:56.821Z,-3.71
2019-02-07T05:58:35.758Z,-3.65
2019-02-07T06:01:21.815Z,-3.64
2019-02-07T06:04:00.564Z,-3.62
2019-02-07T06:06:45.539Z,-3.59
2019-02-07T06:09:15.529Z,-3.60
2019-02-07T06:11:48.524Z,-3.62
2019-02-07T06:14:36.707Z,-3.57
2019-02-07T06:17:18.260Z,-3.58
2019-02-07T06:19:50.893Z,-3.57
2019-02-07T06:22:32.835Z,-3.59
2019-02-07T06:25:02.955Z,-3.55
2019-02-07T06:27:48.210Z,-3.53
2019-02-07T06:30:35.021Z,-3.52
2019-02-07T06:33:05.012Z,-3.51
2019-02-07T06:35:37.466Z,-3.50
2019-02-07T06:38:13.357Z,-3.52
2019-02-07T06:40:43.289Z,-3.49
2019-02-07T06:43:27.946Z,-3.48
2019-02-07T06:46:14.261Z,-3.48
2019-02-07T06:49:00.072Z,-3.44
2019-02-07T06:51:48.360Z,-3.47
2019-02-07T06:54:36.378Z,-3.52
2019-02-07T06:57:06.555Z,-3.57
2019-02-07T06:59:36.487Z,-3.58
2019-02-07T07:02:06.422Z,-3.63
2019-02-07T07:04:51.438Z,-3.62
2019-02-07T07:07:37.391Z,-3.63
2019-02-07T07:10:16.416Z,-3.64
2019-02-07T07:12:52.126Z,-3.68
2019-02-07T07:15:22.041Z,-3.67
2019-02-07T07:18:07.720Z,-3.61
2019-02-07T07:20:53.593Z,-3.59
2019-02-07T07:23:35.554Z,-3.58
2019-02-07T07:26:21.541Z,-3.54
2019-02-07T07:29:09.414Z,-3.48
2019-02-07T07:31:39.361Z,-3.49
2019-02-07T07:34:09.390Z,-3.55
2019-02-07T07:36:55.529Z,-3.48
2019-02-07T07:39:41.385Z,-3.39
2019-02-07T07:42:17.514Z,-3.32
2019-02-07T07:44:53.383Z,-3.29
2019-02-07T07:47:38.352Z,-3.26
2019-02-07T07:50:14.098Z,-3.16
2019-02-07T07:52:47.017Z,-3.03
2019-02-07T07:55:16.950Z,-2.92
2019-02-07T07:57:46.855Z,-2.80
2019-02-07T08:00:22.537Z,-2.68
2019-02-07T08:03:01.324Z,-2.54
2019-02-07T08:05:43.573Z,-2.47
2019-02-07T08:08:17.044Z,-2.35
2019-02-07T08:10:46.948Z,-2.27
2019-02-07T08:13:32.172Z,-2.16
2019-02-07T08:16:18.478Z,-2.03
2019-02-07T08:18:54.149Z,-1.87
2019-02-07T08:21:24.089Z,-1.75
2019-02-07T08:23:56.707Z,-1.69
2019-02-07T08:26:38.472Z,-1.56
2019-02-07T08:29:14.104Z,-1.43
2019-02-07T08:31:46.719Z,-1.30
2019-02-07T08:34:22.710Z,-1.17
2019-02-07T08:37:01.617Z,-1.04
2019-02-07T08:39:47.755Z,-0.94
2019-02-07T08:42:20.751Z,-0.83
2019-02-07T08:44:56.680Z,-0.72
2019-02-07T08:47:35.830Z,-0.61
2019-02-07T08:50:16.037Z,-0.54
2019-02-07T08:53:01.213Z,-0.41
2019-02-07T08:55:31.146Z,-0.31
2019-02-07T08:58:25.194Z,-0.67
2019-02-07T09:01:13.266Z,-0.16
2019-02-07T09:03:52.032Z,-0.08
2019-02-07T09:06:36.931Z,0.00
2019-02-07T09:09:24.922Z,0.07
2019-02-07T09:11:54.832Z,0.11
2019-02-07T09:14:24.730Z,0.18
2019-02-07T09:16:54.647Z,0.26
2019-02-07T09:19:40.416Z,0.33
2019-02-07T09:22:19.689Z,0.42
2019-02-07T09:24:55.435Z,0.50
2019-02-07T09:27:30.903Z,0.57
2019-02-07T09:30:12.843Z,0.67
2019-02-07T09:32:57.608Z,0.72
2019-02-07T09:35:36.583Z,0.80
2019-02-07T09:38:06.643Z,0.90
2019-02-07T09:40:36.595Z,1.02
2019-02-07T09:43:15.393Z,1.11
2019-02-07T09:46:03.803Z,1.23
2019-02-07T09:48:42.567Z,1.37
2019-02-07T09:51:15.210Z,1.52
2019-02-07T09:53:45.488Z,1.65
2019-02-07T09:56:15.387Z,1.78
2019-02-07T09:58:45.296Z,1.88
2019-02-07T10:01:17.978Z,1.96
2019-02-07T10:03:57.086Z,2.05
2019-02-07T10:06:27.064Z,2.16
2019-02-07T10:09:01.259Z,2.31
2019-02-07T10:11:33.933Z,2.37
2019-02-07T10:14:03.984Z,2.48
2019-02-07T10:16:33.951Z,2.56
2019-02-07T10:19:07.052Z,2.60
2019-02-07T10:21:37.013Z,2.55
2019-02-07T10:24:12.895Z,2.43
2019-02-07T10:26:45.601Z,-1.71
2019-02-07T10:29:21.407Z,2.54
2019-02-07T10:31:51.372Z,2.60
2019-02-07T10:34:33.093Z,2.66
2019-02-07T10:37:18.144Z,2.71
2019-02-07T10:40:02.984Z,2.77
2019-02-07T10:42:41.863Z,2.85
2019-02-07T10:45:31.455Z,2.89
2019-02-07T10:48:19.711Z,2.77
2019-02-07T10:50:52.659Z,3.08
2019-02-07T10:53:22.587Z,3.16
2019-02-07T10:56:10.391Z,3.23
2019-02-07T10:58:49.162Z,3.14
2019-02-07T11:01:28.383Z,3.10
2019-02-07T11:03:58.270Z,3.09
2019-02-07T11:06:28.167Z,3.13
2019-02-07T11:09:06.910Z,3.18
2019-02-07T11:11:36.812Z,3.15
2019-02-07T11:14:13.112Z,3.09
2019-02-07T11:16:45.939Z,3.10
2019-02-07T11:19:21.403Z,3.10
2019-02-07T11:21:50.381Z,2.97
2019-02-07T11:24:20.357Z,2.92
2019-02-07T11:26:50.256Z,2.87
2019-02-07T11:29:20.174Z,2.90
2019-02-07T11:32:02.378Z,2.92
2019-02-07T11:34:48.541Z,3.10
2019-02-07T11:37:27.883Z,3.19
2019-02-07T11:40:00.742Z,3.39
2019-02-07T11:42:48.559Z,3.54
2019-02-07T11:45:18.542Z,3.67
2019-02-07T11:47:48.604Z,3.70
2019-02-07T11:50:34.919Z,3.73
2019-02-07T11:53:11.323Z,3.70
2019-02-07T11:55:57.358Z,3.83
2019-02-07T11:58:43.749Z,3.95
2019-02-07T12:01:19.641Z,4.08
2019-02-07T12:04:01.779Z,4.21
2019-02-07T12:06:34.438Z,4.18
2019-02-07T12:09:07.407Z,4.18
2019-02-07T12:11:39.921Z,4.22
2019-02-07T12:14:09.819Z,4.24
2019-02-07T12:16:56.310Z,4.30
2019-02-07T12:19:35.340Z,4.29
2019-02-07T12:22:21.556Z,4.33
2019-02-07T12:25:07.842Z,4.39
2019-02-07T12:27:54.118Z,4.40
2019-02-07T12:30:42.244Z,4.43
2019-02-07T12:33:15.170Z,4.39
2019-02-07T12:35:45.214Z,4.34
2019-02-07T12:38:15.152Z,4.34
2019-02-07T12:40:54.011Z,4.45
2019-02-07T12:43:39.209Z,4.59
2019-02-07T12:46:15.386Z,4.72
2019-02-07T12:48:48.254Z,4.81
2019-02-07T12:51:29.998Z,4.86
2019-02-07T12:53:59.905Z,4.86
2019-02-07T12:56:29.811Z,4.86
2019-02-07T12:59:05.794Z,4.82
2019-02-07T13:01:35.710Z,4.81
2019-02-07T13:04:22.124Z,4.68
2019-02-07T13:06:52.531Z,4.60
2019-02-07T13:09:31.338Z,4.57
2019-02-07T13:12:17.244Z,4.49
2019-02-07T13:14:47.246Z,4.38
2019-02-07T13:17:17.186Z,4.19
2019-02-07T13:19:49.595Z,4.16
2019-02-07T13:22:25.057Z,4.05
2019-02-07T13:25:06.789Z,4.03
2019-02-07T13:27:36.749Z,3.96
2019-02-07T13:30:28.134Z,3.91
2019-02-07T13:33:09.618Z,3.89
2019-02-07T13:35:41.463Z,3.91
2019-02-07T13:38:11.412Z,3.90
2019-02-07T13:40:56.002Z,2.74
2019-02-07T13:46:17.859Z,3.86
2019-02-07T13:48:50.595Z,3.79
2019-02-07T13:51:23.637Z,3.76
2019-02-07T13:53:59.588Z,3.58
2019-02-07T13:56:29.785Z,3.53
2019-02-07T13:59:05.907Z,3.45
2019-02-07T14:01:38.594Z,3.41
2019-02-07T14:04:21.467Z,3.39
2019-02-07T14:07:00.530Z,3.39
2019-02-07T14:09:33.400Z,3.42
2019-02-07T14:12:03.324Z,3.42
2019-02-07T14:14:39.010Z,3.42
2019-02-07T14:17:12.025Z,3.34
2019-02-07T14:20:03.311Z,3.31
2019-02-07T14:22:40.837Z,3.31
2019-02-07T14:25:14.335Z,3.31
2019-02-07T14:28:00.486Z,3.27
2019-02-07T14:30:30.397Z,3.26
2019-02-07T14:33:13.847Z,3.26
2019-02-07T14:36:02.075Z,3.22
2019-02-07T14:38:41.437Z,3.21
2019-02-07T14:41:13.837Z,3.15
2019-02-07T14:43:43.987Z,3.07
2019-02-07T14:46:14.118Z,2.96
2019-02-07T14:48:45.146Z,2.91
2019-02-07T14:51:12.513Z,2.77
2019-02-07T14:53:40.734Z,2.67
2019-02-07T14:56:09.025Z,2.55
2019-02-07T14:58:40.275Z,2.54
2019-02-07T15:01:08.762Z,2.47
2019-02-07T15:03:37.049Z,2.45
2019-02-07T15:06:05.392Z,2.42
2019-02-07T15:08:34.542Z,2.38
2019-02-07T15:11:02.817Z,2.36
2019-02-07T15:13:31.141Z,2.33
2019-02-07T15:15:59.408Z,2.27
2019-02-07T15:18:28.768Z,2.20
2019-02-07T15:20:57.007Z,2.13
2019-02-07T15:23:25.303Z,2.08
2019-02-07T15:25:53.589Z,2.01
2019-02-07T15:28:21.844Z,2.00
2019-02-07T15:30:50.132Z,2.03
2019-02-07T15:33:18.872Z,2.01
2019-02-07T15:35:49.192Z,1.95
2019-02-07T15:38:17.474Z,1.88
2019-02-07T15:40:45.844Z,1.87
2019-02-07T15:43:14.102Z,1.85
2019-02-07T15:45:42.373Z,1.77
2019-02-07T15:48:10.659Z,1.70
2019-02-07T15:50:38.998Z,1.72
2019-02-07T15:53:07.326Z,1.75
2019-02-07T15:55:35.583Z,1.73
2019-02-07T15:58:04.287Z,1.75
2019-02-07T16:00:52.283Z,1.74
2019-02-07T16:03:37.757Z,1.74
2019-02-07T16:06:06.600Z,1.72
2019-02-07T16:08:35.026Z,1.70
2019-02-07T16:11:03.289Z,1.66
2019-02-07T16:13:32.367Z,1.68
2019-02-07T16:16:00.782Z,1.71
2019-02-07T16:18:29.172Z,1.70
2019-02-07T16:20:57.574Z,1.65
2019-02-07T16:23:26.023Z,1.53
2019-02-07T16:25:54.356Z,1.45
2019-02-07T16:28:22.690Z,1.40
2019-02-07T16:30:51.019Z,1.32
2019-02-07T16:33:19.422Z,1.34
2019-02-07T16:35:47.891Z,1.33
2019-02-07T16:38:16.216Z,1.31
2019-02-07T16:40:44.547Z,1.28
2019-02-07T16:43:14.451Z,1.29
2019-02-07T16:45:43.083Z,1.29
2019-02-07T16:48:11.336Z,1.29
2019-02-07T16:50:39.601Z,1.29
2019-02-07T16:53:07.864Z,1.30
2019-02-07T16:55:36.153Z,1.28
2019-02-07T16:58:04.560Z,1.27
2019-02-07T17:00:36.432Z,1.28
2019-02-07T17:03:04.871Z,1.30
2019-02-07T17:05:33.131Z,0.18
2019-02-07T17:08:01.414Z,1.34
2019-02-07T17:10:35.764Z,1.33
2019-02-07T17:13:05.626Z,1.34
2019-02-07T17:15:34.262Z,1.37
2019-02-07T17:18:02.527Z,1.39
2019-02-07T17:20:31.844Z,1.43
2019-02-07T17:23:00.102Z,1.48
2019-02-07T17:25:29.708Z,1.51
2019-02-07T17:27:57.963Z,1.51
2019-02-07T17:30:26.225Z,1.51
2019-02-07T17:32:54.568Z,1.51
2019-02-07T17:35:22.819Z,1.54
2019-02-07T17:37:51.177Z,1.53
2019-02-07T17:40:21.939Z,1.54
2019-02-07T17:42:50.267Z,1.55
2019-02-07T17:45:24.120Z,1.55
2019-02-07T17:47:52.377Z,1.56
2019-02-07T17:50:25.950Z,1.57
2019-02-07T17:52:54.452Z,1.57
2019-02-07T17:55:24.440Z,1.57
2019-02-07T17:57:52.715Z,1.54
2019-02-07T18:00:27.903Z,1.56
2019-02-07T18:02:56.172Z,1.54
2019-02-07T18:05:24.430Z,1.54
2019-02-07T18:07:52.693Z,1.54
2019-02-07T18:10:20.958Z,1.56
2019-02-07T18:12:49.224Z,1.55
2019-02-07T18:15:17.480Z,1.57
2019-02-07T18:17:46.745Z,1.58
2019-02-07T18:20:17.235Z,1.59
2019-02-07T18:22:45.580Z,1.59
2019-02-07T18:25:13.990Z,1.61
2019-02-07T18:27:42.238Z,1.61
2019-02-07T18:30:16.155Z,1.61
2019-02-07T18:32:44.840Z,1.64
2019-02-07T18:35:13.116Z,1.66
2019-02-07T18:37:41.584Z,1.64
2019-02-07T18:40:22.385Z,1.60
2019-02-07T18:42:50.667Z,1.62
2019-02-07T18:45:20.646Z,1.63
2019-02-07T18:47:49.039Z,1.62
2019-02-07T18:50:20.382Z,1.62
2019-02-07T18:52:50.611Z,1.61
2019-02-07T18:55:18.908Z,1.63
2019-02-07T18:57:47.217Z,1.64
2019-02-07T19:00:21.840Z,1.65
2019-02-07T19:02:50.177Z,1.64
2019-02-07T19:05:20.388Z,1.65
2019-02-07T19:07:48.685Z,1.68
2019-02-07T19:10:19.089Z,1.70
2019-02-07T19:12:47.486Z,1.63
2019-02-07T19:15:28.619Z,1.63
2019-02-07T19:17:56.888Z,1.63
2019-02-07T19:20:25.294Z,1.62
2019-02-07T19:22:53.555Z,1.62
2019-02-07T19:25:21.936Z,1.65
2019-02-07T19:27:50.323Z,1.68
2019-02-07T19:30:32.494Z,1.67
2019-02-07T19:33:00.824Z,1.67
2019-02-07T19:35:29.350Z,1.68
2019-02-07T19:37:58.270Z,1.68
2019-02-07T19:40:26.608Z,1.73
2019-02-07T19:42:55.349Z,1.75
2019-02-07T19:45:25.515Z,1.71
2019-02-07T19:47:53.847Z,1.67
2019-02-07T19:50:28.810Z,1.65
2019-02-07T19:52:57.203Z,1.64
2019-02-07T19:55:28.149Z,1.64
2019-02-07T19:57:57.246Z,1.66
2019-02-07T20:00:33.171Z,1.68
2019-02-07T20:03:01.646Z,1.68
2019-02-07T20:05:30.074Z,1.64
2019-02-07T20:07:58.419Z,1.64
2019-02-07T20:10:30.253Z,1.65
2019-02-07T20:13:00.689Z,1.69
2019-02-07T20:15:38.110Z,1.65
2019-02-07T20:18:09.518Z,1.65
2019-02-07T20:20:38.022Z,1.65
2019-02-07T20:23:06.487Z,1.68
2019-02-07T20:25:34.898Z,1.68
2019-02-07T20:28:03.342Z,-0.57
2019-02-07T20:30:33.816Z,1.69
2019-02-07T20:33:04.455Z,1.68
2019-02-07T20:35:32.814Z,1.67
2019-02-07T20:38:01.134Z,1.64
2019-02-07T20:40:29.898Z,1.61
2019-02-07T20:42:58.291Z,1.57
2019-02-07T20:45:26.771Z,1.55
2019-02-07T20:47:55.198Z,1.57
2019-02-07T20:50:28.126Z,1.57
2019-02-07T20:52:56.612Z,1.62
2019-02-07T20:55:25.557Z,-0.19
2019-02-07T20:57:54.860Z,1.68
2019-02-07T21:00:28.951Z,1.67
2019-02-07T21:02:58.890Z,1.64
2019-02-07T21:05:28.467Z,1.67
2019-02-07T21:07:56.829Z,1.66
2019-02-07T21:10:33.575Z,1.67
2019-02-07T21:13:02.007Z,1.64
2019-02-07T21:15:30.389Z,1.65
2019-02-07T21:17:58.763Z,1.63
2019-02-07T21:20:28.935Z,1.59
2019-02-07T21:22:57.873Z,1.53
2019-02-07T21:25:41.487Z,1.46
2019-02-07T21:28:10.245Z,1.44
2019-02-07T21:30:38.542Z,1.43
2019-02-07T21:33:06.985Z,1.44
2019-02-07T21:35:35.416Z,1.46
2019-02-07T21:38:04.152Z,1.44
2019-02-07T21:40:32.605Z,1.40
2019-02-07T21:43:01.185Z,1.32
2019-02-07T21:45:29.897Z,1.25
2019-02-07T21:48:02.395Z,1.22
2019-02-07T21:50:33.763Z,1.21
2019-02-07T21:53:02.028Z,1.20
2019-02-07T21:55:33.042Z,1.19
2019-02-07T21:58:01.398Z,1.20
2019-02-07T22:00:34.300Z,1.21
2019-02-07T22:03:02.657Z,1.22
2019-02-07T22:05:31.118Z,1.18
2019-02-07T22:08:02.243Z,1.16
2019-02-07T22:10:30.629Z,1.15
2019-02-07T22:12:58.867Z,1.16
2019-02-07T22:15:28.237Z,1.19
2019-02-07T22:17:56.498Z,1.27
2019-02-07T22:20:33.063Z,1.33
2019-02-07T22:23:01.419Z,1.36
2019-02-07T22:25:29.741Z,1.35
2019-02-07T22:27:58.050Z,1.35
2019-02-07T22:30:32.043Z,1.36
2019-02-07T22:33:00.397Z,1.34
2019-02-07T22:35:28.778Z,1.27
2019-02-07T22:37:57.123Z,1.23
2019-02-07T22:40:25.770Z,1.17
2019-02-07T22:42:54.077Z,1.14
2019-02-07T22:45:25.388Z,1.11
2019-02-07T22:47:53.653Z,1.10
2019-02-07T22:50:30.199Z,1.07
2019-02-07T22:53:00.645Z,1.07
2019-02-07T22:55:28.914Z,1.12
2019-02-07T22:57:57.317Z,1.13
2019-02-07T23:00:36.445Z,1.15
2019-02-07T23:03:17.007Z,1.15
2019-02-07T23:05:45.286Z,1.09
2019-02-07T23:08:13.641Z,1.12
2019-02-07T23:10:42.291Z,1.10
2019-02-07T23:13:10.762Z,1.11
2019-02-07T23:15:39.067Z,-1.31
2019-02-07T23:18:09.130Z,0.87
2019-02-07T23:20:37.423Z,1.04
2019-02-07T23:23:08.022Z,0.99
2019-02-07T23:25:36.319Z,0.91
2019-02-07T23:28:05.047Z,0.88
2019-02-07T23:30:33.404Z,0.88
2019-02-07T23:33:01.813Z,0.90
2019-02-07T23:35:30.291Z,0.87
2019-02-07T23:37:58.551Z,0.89
2019-02-07T23:40:26.854Z,-0.29
2019-02-07T23:42:55.422Z,0.88
2019-02-07T23:45:24.322Z,0.91
2019-02-07T23:47:52.687Z,0.89
2019-02-07T23:50:23.938Z,0.89
2019-02-07T23:52:52.249Z,0.86
2019-02-07T23:55:20.546Z,0.84
2019-02-07T23:57:48.906Z,0.85
